長春 の空港の天気 - METARとTAF

長春龍嘉国際空港 ( ZYCC / CGQ ) - 中国 吉林省長春市
飛行場実況気象(Metar)
観測時間02/06 05:00 CST (02/05 21:00 UTC)
風向・風速静穏 0m/s
視程3000m
天気現象
なし
気温-19℃
湿度77%
気圧1023hPa
METARZYCC 052100Z 00000MPS 3000 FU NSC M19/M22 Q1023 NOSIG
過去の天気等 Google飛行場航空写真 Wunderground天気予報

過去48時間のMETAR

飛行場予報(TAF)
発表時間: 2/06 00:01 CST (2/05 16:01 UTC)
予報対象時間: 5日20時 CST ~ 6日20時 CST
風向・風速西南西 4m/s
視程3000m
天気現象
なし
6日0時 CST ~ 6日6時 CST に一時的に
視程2000m
TAF AMD ZYCC 051601Z 0512/0612 24004MPS 3000 FU NSC TXM04/0606Z TNM16/0521Z
TEMPO 0516/0522 2000